Time;durP1;ratioP1;P1;durP2;ratioP2;P2;SDS_P1;SDS_P2;PMS_P1;PMS_P2;Temp;Humidity;BMP_temperature;BMP_pressure;BME280_temperature;BME280_humidity;BME280_pressure;Samples;Min_cycle;Max_cycle;Signal;HPM_P1;HPM_P2
2023/03/23 00:02:11;;;;;;;;;;;;;;;10.67;100.00;100244.97;4999860;28;19928;-76
2023/03/23 00:04:36;;;;;;;;;;;;;;;10.75;100.00;100222.81;5036000;28;20514;-75
2023/03/23 00:07:02;;;;;;;;;;;;;;;10.91;100.00;100227.69;5012720;28;19925;-77
2023/03/23 00:09:28;;;;;;;;;;;;;;;10.75;100.00;100217.44;5016362;28;20374;-78
2023/03/23 00:11:56;;;;;;;;;;;;;;;10.86;100.00;100227.22;5018813;28;19928;-78
2023/03/23 00:14:22;;;;;;;;;;;;;;;10.98;100.00;100223.47;5023303;28;19920;-77
2023/03/23 00:16:48;;;;;;;;;;;;;;;10.99;100.00;100235.88;5031795;28;20252;-76
2023/03/23 00:19:13;;;;;;;;;;;;;;;11.00;100.00;100234.06;5015907;28;19958;-76
2023/03/23 00:21:39;;;;;;;;;;;;;;;10.92;100.00;100224.00;5001037;28;19932;-76
2023/03/23 00:24:15;;;;;;;;;;;;;;;10.92;100.00;100214.09;5019247;28;20359;-76
2023/03/23 00:26:41;;;;;;;;;;;;;;;11.01;100.00;100204.38;5016937;28;19921;-76
2023/03/23 00:29:13;;;;;;;;;;;;;;;11.00;100.00;100220.63;5014824;28;20287;-76
2023/03/23 00:31:38;;;;;;;;;;;;;;;10.96;100.00;100230.81;5035049;28;20020;-76
2023/03/23 00:34:04;;;;;;;;;;;;;;;10.90;100.00;100234.88;5017359;28;20011;-75
2023/03/23 00:36:34;;;;;;;;;;;;;;;10.96;100.00;100238.88;5033003;28;19974;-78
2023/03/23 00:39:01;;;;;;;;;;;;;;;10.91;100.00;100244.63;5031492;28;19921;-76
2023/03/23 00:41:26;;;;;;;;;;;;;;;10.97;100.00;100245.94;5016611;28;19921;-75
2023/03/23 00:43:52;;;;;;;;;;;;;;;11.08;100.00;100231.53;5014669;28;20061;-75
2023/03/23 00:46:17;;;;;;;;;;;;;;;10.86;100.00;100237.97;5004681;28;20290;-77
2023/03/23 00:48:44;;;;;;;;;;;;;;;10.98;100.00;100236.91;5037669;28;20497;-76
2023/03/23 00:51:11;;;;;;;;;;;;;;;11.04;100.00;100222.88;5016992;28;19920;-78
2023/03/23 00:53:37;;;;;;;;;;;;;;;10.90;100.00;100223.28;5019197;28;19921;-76
2023/03/23 00:56:03;;;;;;;;;;;;;;;10.92;100.00;100227.53;5018481;28;19921;-76
2023/03/23 00:58:28;;;;;;;;;;;;;;;10.99;100.00;100217.06;5034253;28;19916;-75
2023/03/23 01:00:53;;;;;;;;;;;;;;;11.00;100.00;100210.72;5031707;28;20335;-75
2023/03/23 01:03:18;;;;;;;;;;;;;;;10.90;100.00;100191.06;4997222;28;20001;-75
2023/03/23 01:05:46;;;;;;;;;;;;;;;11.02;100.00;100206.06;5012137;28;19948;-76
2023/03/23 01:08:12;;;;;;;;;;;;;;;10.88;100.00;100218.03;5027415;28;19976;-77
2023/03/23 01:10:38;;;;;;;;;;;;;;;10.85;100.00;100207.59;5007127;28;20027;-76
2023/03/23 01:13:03;;;;;;;;;;;;;;;10.84;100.00;100208.59;5010778;28;20251;-76
2023/03/23 01:15:29;;;;;;;;;;;;;;;10.98;100.00;100190.38;5030487;28;19932;-77
2023/03/23 01:17:54;;;;;;;;;;;;;;;10.74;100.00;100188.91;5012803;28;19929;-77
2023/03/23 01:20:20;;;;;;;;;;;;;;;10.80;100.00;100174.94;5026417;28;19921;-76
2023/03/23 01:22:45;;;;;;;;;;;;;;;10.72;100.00;100188.19;5011611;28;19928;-78
2023/03/23 01:25:11;;;;;;;;;;;;;;;10.79;100.00;100178.59;5008885;28;19996;-76
2023/03/23 01:27:36;;;;;;;;;;;;;;;10.80;100.00;100159.66;5009005;28;20500;-74
2023/03/23 01:30:01;;;;;;;;;;;;;;;10.83;100.00;100150.50;5021006;28;19924;-76
2023/03/23 01:32:26;;;;;;;;;;;;;;;10.77;100.00;100135.75;5028043;28;19921;-76
2023/03/23 01:34:52;;;;;;;;;;;;;;;10.64;100.00;100137.88;5027463;28;19932;-77
2023/03/23 01:37:17;;;;;;;;;;;;;;;10.84;100.00;100132.53;5030562;28;19943;-76
2023/03/23 01:39:43;;;;;;;;;;;;;;;10.98;100.00;100115.16;5008144;28;19925;-74
2023/03/23 01:42:08;;;;;;;;;;;;;;;10.83;100.00;100120.09;5001951;28;19921;-77
2023/03/23 01:44:33;;;;;;;;;;;;;;;10.99;100.00;100114.16;5010393;28;20299;-77
2023/03/23 01:46:59;;;;;;;;;;;;;;;10.99;100.00;100117.69;5010382;28;19920;-76
2023/03/23 01:49:26;;;;;;;;;;;;;;;11.02;100.00;100130.84;5026786;28;20013;-77
2023/03/23 01:51:56;;;;;;;;;;;;;;;11.04;100.00;100125.34;4993463;28;20485;-76
2023/03/23 01:54:22;;;;;;;;;;;;;;;10.92;100.00;100124.63;5010082;28;20127;-76
2023/03/23 01:56:48;;;;;;;;;;;;;;;11.16;100.00;100126.91;5008637;28;19921;-77
2023/03/23 01:59:15;;;;;;;;;;;;;;;11.01;100.00;100137.22;4994348;28;19925;-76
2023/03/23 02:01:45;;;;;;;;;;;;;;;11.09;100.00;100131.16;5006040;28;20327;-76
2023/03/23 02:04:11;;;;;;;;;;;;;;;10.95;100.00;100125.19;4995603;28;19936;-78
2023/03/23 02:06:36;;;;;;;;;;;;;;;10.84;100.00;100117.28;5012186;28;20011;-74
2023/03/23 02:09:02;;;;;;;;;;;;;;;10.89;100.00;100109.63;5010089;28;20409;-76
2023/03/23 02:11:27;;;;;;;;;;;;;;;11.10;100.00;100119.44;5029121;28;19959;-76
2023/03/23 02:13:52;;;;;;;;;;;;;;;11.15;100.00;100092.97;5033586;28;19952;-78
2023/03/23 02:16:24;;;;;;;;;;;;;;;11.18;100.00;100095.38;5030128;28;19931;-77
2023/03/23 02:18:49;;;;;;;;;;;;;;;11.09;100.00;100083.63;5033360;28;19932;-77
2023/03/23 02:21:33;;;;;;;;;;;;;;;11.11;100.00;100113.06;5029823;28;19924;-75
2023/03/23 02:23:59;;;;;;;;;;;;;;;11.25;100.00;100095.66;5028296;28;19924;-75
2023/03/23 02:26:32;;;;;;;;;;;;;;;11.37;100.00;100091.81;5033170;28;20287;-77
2023/03/23 02:29:21;;;;;;;;;;;;;;;11.25;100.00;100071.50;5034253;28;20719;-77
2023/03/23 02:31:46;;;;;;;;;;;;;;;11.45;100.00;100101.84;4997872;28;20001;-76
2023/03/23 02:34:14;;;;;;;;;;;;;;;11.36;100.00;100092.81;5031799;28;20016;-77
2023/03/23 02:36:46;;;;;;;;;;;;;;;11.35;100.00;100101.88;5013502;28;19921;-78
2023/03/23 02:39:17;;;;;;;;;;;;;;;11.50;100.00;100096.91;5014942;28;19925;-77
2023/03/23 02:41:44;;;;;;;;;;;;;;;11.44;100.00;100100.16;5014239;28;19960;-76
2023/03/23 02:44:09;;;;;;;;;;;;;;;11.42;100.00;100110.19;5000514;28;19966;-78
2023/03/23 02:46:35;;;;;;;;;;;;;;;11.37;100.00;100105.25;5029766;28;19924;-77
2023/03/23 02:49:00;;;;;;;;;;;;;;;11.34;100.00;100104.72;5007982;28;19980;-78
2023/03/23 02:51:25;;;;;;;;;;;;;;;11.40;100.00;100096.06;5012436;28;19917;-78
2023/03/23 02:53:51;;;;;;;;;;;;;;;11.40;100.00;100094.22;5020443;28;20381;-77
2023/03/23 02:56:17;;;;;;;;;;;;;;;11.33;100.00;100098.47;5023984;28;20456;-77
2023/03/23 02:58:42;;;;;;;;;;;;;;;11.40;100.00;100099.59;5003656;28;20317;-78
2023/03/23 03:01:36;;;;;;;;;;;;;;;11.37;100.00;100096.38;5031927;28;20672;-77
2023/03/23 03:04:12;;;;;;;;;;;;;;;11.37;100.00;100088.31;5039880;28;20302;-78
2023/03/23 03:06:48;;;;;;;;;;;;;;;11.44;100.00;100081.34;5017430;28;19928;-79
2023/03/23 03:09:22;;;;;;;;;;;;;;;11.42;100.00;100087.88;5036383;28;19940;-76
2023/03/23 03:11:48;;;;;;;;;;;;;;;11.36;100.00;100084.75;5030897;28;20448;-77
2023/03/23 03:14:18;;;;;;;;;;;;;;;11.38;100.00;100093.53;5019800;28;19951;-77
2023/03/23 03:16:45;;;;;;;;;;;;;;;11.33;100.00;100098.47;5010527;28;19916;-77
2023/03/23 03:19:16;;;;;;;;;;;;;;;11.39;100.00;100097.91;5012535;28;19944;-76
2023/03/23 03:21:43;;;;;;;;;;;;;;;11.44;100.00;100093.94;5027575;28;19928;-76
2023/03/23 03:24:10;;;;;;;;;;;;;;;11.33;100.00;100092.25;5009221;28;19929;-76
2023/03/23 03:26:36;;;;;;;;;;;;;;;11.34;100.00;100091.28;5027845;28;19932;-76
2023/03/23 03:29:01;;;;;;;;;;;;;;;11.37;100.00;100094.50;5028889;28;19917;-77
2023/03/23 03:31:34;;;;;;;;;;;;;;;11.22;100.00;100082.50;5027682;28;19921;-76
2023/03/23 03:34:01;;;;;;;;;;;;;;;11.15;100.00;100070.63;5007436;28;20500;-76
2023/03/23 03:36:27;;;;;;;;;;;;;;;11.33;100.00;100097.63;5027687;28;19944;-79
2023/03/23 03:38:53;;;;;;;;;;;;;;;11.33;100.00;100100.31;5028061;28;19925;-76
2023/03/23 03:41:18;;;;;;;;;;;;;;;11.29;100.00;100112.34;5014940;28;20362;-77
2023/03/23 03:43:43;;;;;;;;;;;;;;;11.33;100.00;100103.00;5028445;28;19921;-76
2023/03/23 03:46:09;;;;;;;;;;;;;;;11.34;100.00;100104.72;5016472;28;19925;-76
2023/03/23 03:48:34;;;;;;;;;;;;;;;11.44;100.00;100102.84;5032978;28;19982;-76
2023/03/23 03:51:06;;;;;;;;;;;;;;;11.33;100.00;100101.16;5069173;23;19932;-75
2023/03/23 03:53:31;;;;;;;;;;;;;;;11.39;100.00;100100.59;5061209;28;20433;-78
2023/03/23 03:55:59;;;;;;;;;;;;;;;11.44;100.00;100099.31;5011185;28;19931;-77
2023/03/23 03:58:31;;;;;;;;;;;;;;;11.46;100.00;100100.88;5065164;28;20050;-77
2023/03/23 04:00:56;;;;;;;;;;;;;;;11.42;100.00;100104.81;5013603;28;19955;-76
2023/03/23 04:03:22;;;;;;;;;;;;;;;11.35;100.00;100099.19;5047255;28;20019;-76
2023/03/23 04:05:48;;;;;;;;;;;;;;;11.51;100.00;100095.91;5052967;28;19931;-77
2023/03/23 04:08:13;;;;;;;;;;;;;;;11.40;100.00;100096.91;5053326;28;20326;-77
2023/03/23 04:10:39;;;;;;;;;;;;;;;11.53;100.00;100093.94;5049211;28;19967;-78
2023/03/23 04:13:04;;;;;;;;;;;;;;;11.62;100.00;100096.75;5040686;28;19921;-78
2023/03/23 04:15:30;;;;;;;;;;;;;;;11.56;100.00;100090.09;5023427;28;19982;-78
2023/03/23 04:17:56;;;;;;;;;;;;;;;11.57;100.00;100107.91;5059374;28;19921;-77
2023/03/23 04:20:21;;;;;;;;;;;;;;;11.56;100.00;100095.47;5055705;28;20453;-77
2023/03/23 04:22:51;;;;;;;;;;;;;;;11.52;100.00;100105.69;5031225;28;19920;-76
2023/03/23 04:25:20;;;;;;;;;;;;;;;11.58;100.00;100106.09;5033613;28;19924;-77
2023/03/23 04:27:46;;;;;;;;;;;;;;;11.64;100.00;100102.84;5036912;28;20015;-77
2023/03/23 04:30:12;;;;;;;;;;;;;;;11.57;100.00;100110.59;5045559;28;20021;-76
2023/03/23 04:32:40;;;;;;;;;;;;;;;11.47;100.00;100109.78;5028331;28;19921;-76
2023/03/23 04:35:06;;;;;;;;;;;;;;;11.46;100.00;100122.38;5043583;28;19970;-77
2023/03/23 04:37:34;;;;;;;;;;;;;;;11.64;100.00;100114.44;5045322;28;19920;-78
2023/03/23 04:40:11;;;;;;;;;;;;;;;11.60;100.00;100128.31;5046307;28;21601;-76
2023/03/23 04:42:37;;;;;;;;;;;;;;;11.57;100.00;100125.91;5049388;28;20367;-76
2023/03/23 04:45:02;;;;;;;;;;;;;;;11.52;100.00;100134.41;5046877;28;19993;-76
2023/03/23 04:47:31;;;;;;;;;;;;;;;11.58;100.00;100130.28;5031780;28;19958;-77
2023/03/23 04:49:57;;;;;;;;;;;;;;;11.63;100.00;100136.09;5025608;28;19960;-79
2023/03/23 04:52:24;;;;;;;;;;;;;;;11.56;100.00;100127.72;5047973;28;20359;-76
2023/03/23 04:54:50;;;;;;;;;;;;;;;11.58;100.00;100133.81;5046603;28;19956;-77
2023/03/23 04:57:15;;;;;;;;;;;;;;;11.59;100.00;100132.81;5047685;28;20018;-76
2023/03/23 04:59:41;;;;;;;;;;;;;;;11.55;100.00;100126.03;5045931;28;19927;-76
2023/03/23 05:02:06;;;;;;;;;;;;;;;11.63;100.00;100128.84;5047624;28;19931;-78
2023/03/23 05:04:33;;;;;;;;;;;;;;;11.51;100.00;100135.41;5045231;28;20023;-77
2023/03/23 05:06:58;;;;;;;;;;;;;;;11.60;100.00;100139.91;5048476;28;19921;-77
2023/03/23 05:09:23;;;;;;;;;;;;;;;11.47;100.00;100133.97;5045446;28;19925;-76
2023/03/23 05:11:49;;;;;;;;;;;;;;;11.52;100.00;100135.25;5066902;28;19927;-77
2023/03/23 05:14:14;;;;;;;;;;;;;;;11.51;100.00;100133.53;5033311;28;20327;-76
2023/03/23 05:16:40;;;;;;;;;;;;;;;11.49;100.00;100127.47;5045207;28;19958;-76
2023/03/23 05:19:05;;;;;;;;;;;;;;;11.43;100.00;100135.25;5054314;28;20428;-76
2023/03/23 05:21:31;;;;;;;;;;;;;;;11.45;100.00;100139.50;5042762;28;19928;-77
2023/03/23 05:23:56;;;;;;;;;;;;;;;11.50;100.00;100134.53;5051046;28;19970;-76
2023/03/23 05:26:21;;;;;;;;;;;;;;;11.39;100.00;100130.16;5050194;28;19986;-75
2023/03/23 05:28:48;;;;;;;;;;;;;;;11.40;100.00;100133.69;5051088;28;20003;-77
2023/03/23 05:31:13;;;;;;;;;;;;;;;11.48;100.00;100124.94;5034555;28;19928;-77
2023/03/23 05:33:38;;;;;;;;;;;;;;;11.48;100.00;100135.69;5047965;28;19924;-76
2023/03/23 05:36:06;;;;;;;;;;;;;;;11.58;100.00;100128.44;5053444;28;19928;-76
2023/03/23 05:38:31;;;;;;;;;;;;;;;11.54;100.00;100143.16;5053422;28;19943;-76
2023/03/23 05:41:00;;;;;;;;;;;;;;;11.46;100.00;100143.88;5055567;28;20291;-79
2023/03/23 05:43:26;;;;;;;;;;;;;;;11.44;100.00;100142.31;5052618;28;20874;-77
2023/03/23 05:45:51;;;;;;;;;;;;;;;11.47;100.00;100142.88;5046970;28;20019;-77
2023/03/23 05:48:17;;;;;;;;;;;;;;;11.48;100.00;100133.00;5065020;28;19912;-75
2023/03/23 05:50:42;;;;;;;;;;;;;;;11.58;100.00;100139.19;5060969;28;19927;-76
2023/03/23 05:53:07;;;;;;;;;;;;;;;11.50;100.00;100141.78;5051724;28;19931;-75
2023/03/23 05:55:33;;;;;;;;;;;;;;;11.47;100.00;100147.44;5053495;28;19928;-77
2023/03/23 05:57:58;;;;;;;;;;;;;;;11.58;100.00;100139.19;5057589;28;20417;-78
2023/03/23 06:00:24;;;;;;;;;;;;;;;11.60;100.00;100141.75;5046933;28;20274;-77
2023/03/23 06:02:50;;;;;;;;;;;;;;;11.64;100.00;100148.53;5056863;28;19920;-75
2023/03/23 06:05:16;;;;;;;;;;;;;;;11.54;100.00;100143.16;5056558;28;20353;-76
2023/03/23 06:07:41;;;;;;;;;;;;;;;11.55;100.00;100139.47;5057492;28;19920;-76
2023/03/23 06:10:08;;;;;;;;;;;;;;;11.55;100.00;100169.91;5053981;28;20635;-76
2023/03/23 06:12:34;;;;;;;;;;;;;;;11.47;100.00;100152.81;5056517;28;19951;-77
2023/03/23 06:14:59;;;;;;;;;;;;;;;11.52;100.00;100169.34;5034888;28;19920;-75
2023/03/23 06:17:25;;;;;;;;;;;;;;;11.43;100.00;100160.28;5033031;28;19970;-74
2023/03/23 06:19:50;;;;;;;;;;;;;;;11.55;100.00;100159.16;5049018;28;20344;-77
2023/03/23 06:22:16;;;;;;;;;;;;;;;11.48;100.00;100168.78;5032120;28;19964;-75
2023/03/23 06:24:41;;;;;;;;;;;;;;;11.33;100.00;100171.03;5044934;28;19982;-77
2023/03/23 06:27:07;;;;;;;;;;;;;;;11.34;100.00;100180.78;5044664;28;20192;-77
2023/03/23 06:29:33;;;;;;;;;;;;;;;11.38;100.00;100181.38;5047124;28;19916;-75
2023/03/23 06:31:59;;;;;;;;;;;;;;;11.38;100.00;100186.75;5035124;28;20480;-78
2023/03/23 06:34:24;;;;;;;;;;;;;;;11.36;100.00;100203.00;5045497;28;19932;-77
2023/03/23 06:36:49;;;;;;;;;;;;;;;11.43;100.00;100203.28;5049197;28;19951;-77
2023/03/23 06:39:15;;;;;;;;;;;;;;;11.18;100.00;100184.03;5045656;28;20322;-78
2023/03/23 06:41:40;;;;;;;;;;;;;;;11.28;100.00;100205.53;5045390;28;20633;-77
2023/03/23 06:44:06;;;;;;;;;;;;;;;11.27;100.00;100203.00;5044082;28;19931;-78
2023/03/23 06:46:31;;;;;;;;;;;;;;;11.23;100.00;100208.66;5042620;28;19977;-78
2023/03/23 06:48:57;;;;;;;;;;;;;;;11.13;100.00;100206.94;5029081;28;20351;-80
2023/03/23 06:51:22;;;;;;;;;;;;;;;11.05;100.00;100210.31;5033104;28;19921;-77
2023/03/23 06:53:47;;;;;;;;;;;;;;;10.93;100.00;100221.16;5048670;28;19976;-79
2023/03/23 06:56:13;;;;;;;;;;;;;;;10.84;100.00;100226.50;5032542;28;20031;-78
2023/03/23 06:58:38;;;;;;;;;;;;;;;10.80;100.00;100223.25;5045163;28;20284;-77
2023/03/23 07:01:05;;;;;;;;;;;;;;;10.90;100.00;100217.91;5045785;28;20368;-78
2023/03/23 07:03:31;;;;;;;;;;;;;;;10.90;100.00;100201.81;5047630;28;20525;-75
2023/03/23 07:05:56;;;;;;;;;;;;;;;10.86;100.00;100230.75;5049494;28;19931;-77
2023/03/23 07:08:21;;;;;;;;;;;;;;;10.79;100.00;100230.44;5029101;28;19958;-78
2023/03/23 07:10:47;;;;;;;;;;;;;;;10.70;100.00;100236.66;5045676;28;19921;-77
2023/03/23 07:13:12;;;;;;;;;;;;;;;10.62;100.00;100234.63;5049438;28;19930;-81
2023/03/23 07:15:38;;;;;;;;;;;;;;;10.53;100.00;100234.59;5050205;28;19924;-78
2023/03/23 07:18:03;;;;;;;;;;;;;;;10.53;100.00;100226.53;5047220;28;19965;-78
2023/03/23 07:20:29;;;;;;;;;;;;;;;10.47;100.00;100241.34;5049159;28;19926;-81
2023/03/23 07:22:54;;;;;;;;;;;;;;;10.37;100.00;100262.72;5031544;28;20372;-78
2023/03/23 07:25:20;;;;;;;;;;;;;;;10.29;100.00;100251.81;5060864;28;20018;-78
2023/03/23 07:27:45;;;;;;;;;;;;;;;10.17;100.00;100269.81;5041846;28;19964;-75
2023/03/23 07:30:11;;;;;;;;;;;;;;;10.13;100.00;100260.31;5041320;28;19921;-77
2023/03/23 07:32:37;;;;;;;;;;;;;;;10.16;100.00;100263.59;5046829;28;20391;-77
2023/03/23 07:35:03;;;;;;;;;;;;;;;10.06;100.00;100255.47;5047323;28;19926;-76
2023/03/23 07:37:28;;;;;;;;;;;;;;;10.11;100.00;100255.09;5040424;28;19921;-76
2023/03/23 07:39:54;;;;;;;;;;;;;;;10.16;100.00;100250.19;5041217;28;19925;-78
2023/03/23 07:42:19;;;;;;;;;;;;;;;10.26;100.00;100244.88;5028834;28;19925;-76
2023/03/23 07:44:44;;;;;;;;;;;;;;;10.28;100.00;100240.25;5047382;28;19928;-76
2023/03/23 07:47:09;;;;;;;;;;;;;;;10.32;100.00;100241.69;5049626;28;19926;-78
2023/03/23 07:49:35;;;;;;;;;;;;;;;10.45;100.00;100252.22;5058453;28;19931;-77
2023/03/23 07:52:01;;;;;;;;;;;;;;;10.43;100.00;100261.38;5059253;28;19921;-75
2023/03/23 07:54:26;;;;;;;;;;;;;;;10.45;100.00;100267.47;5052786;28;19920;-78
2023/03/23 07:56:51;;;;;;;;;;;;;;;10.43;100.00;100261.38;5035793;28;19921;-76
2023/03/23 07:59:16;;;;;;;;;;;;;;;10.42;100.00;100243.56;5053699;28;19924;-75
2023/03/23 08:01:42;;;;;;;;;;;;;;;10.33;100.00;100263.97;5052803;28;19927;-77
2023/03/23 08:04:07;;;;;;;;;;;;;;;10.28;100.00;100256.34;5039193;28;19920;-77
2023/03/23 08:06:34;;;;;;;;;;;;;;;10.11;100.00;100273.88;5034881;28;20326;-78
2023/03/23 08:08:59;;;;;;;;;;;;;;;10.01;100.00;100271.13;5049806;28;19921;-76
2023/03/23 08:11:25;;;;;;;;;;;;;;;9.89;100.00;100275.69;5050863;28;19931;-77
2023/03/23 08:13:50;;;;;;;;;;;;;;;9.84;100.00;100282.41;5049208;28;20630;-77
2023/03/23 08:16:15;;;;;;;;;;;;;;;9.90;100.00;100273.84;5048972;28;19917;-77
2023/03/23 08:18:41;;;;;;;;;;;;;;;9.79;100.00;100280.13;5037050;28;20001;-76
2023/03/23 08:21:09;;;;;;;;;;;;;;;9.75;100.00;100284.91;5042930;28;20461;-78
2023/03/23 08:23:34;;;;;;;;;;;;;;;9.80;100.00;100286.34;5035004;28;19921;-77
2023/03/23 08:26:00;;;;;;;;;;;;;;;9.83;100.00;100296.78;5053165;28;19931;-76
2023/03/23 08:28:25;;;;;;;;;;;;;;;9.87;100.00;100306.28;5052169;28;20396;-76
2023/03/23 08:30:50;;;;;;;;;;;;;;;9.84;100.00;100310.06;5047072;28;19962;-76
2023/03/23 08:33:16;;;;;;;;;;;;;;;9.87;100.00;100304.47;5036004;28;20002;-76
2023/03/23 08:35:43;;;;;;;;;;;;;;;9.93;100.00;100296.88;5033701;28;19920;-75
2023/03/23 08:38:09;;;;;;;;;;;;;;;10.06;100.00;100294.88;5048243;28;19920;-77
2023/03/23 08:40:34;;;;;;;;;;;;;;;10.09;100.00;100305.34;5035960;28;20113;-77
2023/03/23 08:42:59;;;;;;;;;;;;;;;10.11;100.00;100310.56;5045892;28;19920;-75
2023/03/23 08:45:25;;;;;;;;;;;;;;;10.15;100.00;100309.31;5044956;28;19928;-77
2023/03/23 08:47:53;;;;;;;;;;;;;;;10.14;100.00;100307.63;5051435;28;20489;-76
2023/03/23 08:50:20;;;;;;;;;;;;;;;10.19;100.00;100306.28;5053617;28;20341;-77
2023/03/23 08:52:45;;;;;;;;;;;;;;;10.16;100.00;100305.66;5048023;28;20086;-76
2023/03/23 08:55:10;;;;;;;;;;;;;;;10.14;100.00;100297.75;5036178;28;20370;-76
2023/03/23 08:57:36;;;;;;;;;;;;;;;10.30;100.00;100313.41;5048350;28;19927;-76
2023/03/23 09:00:13;;;;;;;;;;;;;;;10.43;100.00;100307.00;5045265;28;20512;-76
2023/03/23 09:02:38;;;;;;;;;;;;;;;10.48;100.00;100318.19;5050841;28;19952;-76
2023/03/23 09:05:04;;;;;;;;;;;;;;;10.41;100.00;100322.38;5034872;28;20027;-75
2023/03/23 09:07:29;;;;;;;;;;;;;;;10.43;100.00;100317.75;5047675;28;20442;-76
2023/03/23 09:09:55;;;;;;;;;;;;;;;10.38;100.00;100326.16;5036738;28;20284;-74
2023/03/23 09:12:20;;;;;;;;;;;;;;;10.29;100.00;100318.88;5054850;28;19925;-75
2023/03/23 09:14:45;;;;;;;;;;;;;;;10.29;100.00;100329.63;5053680;28;19920;-75
2023/03/23 09:17:11;;;;;;;;;;;;;;;10.25;100.00;100325.50;5052650;28;19927;-76
2023/03/23 09:19:36;;;;;;;;;;;;;;;10.48;100.00;100315.50;5048544;28;19921;-76
2023/03/23 09:22:01;;;;;;;;;;;;;;;10.60;100.00;100311.75;5058751;28;20026;-78
2023/03/23 09:24:26;;;;;;;;;;;;;;;10.75;100.00;100314.13;5055994;28;20001;-78
2023/03/23 09:26:52;;;;;;;;;;;;;;;10.90;100.00;100310.06;5050218;28;19985;-75
2023/03/23 09:29:18;;;;;;;;;;;;;;;11.31;100.00;100301.19;5052804;28;19920;-78
2023/03/23 09:31:46;;;;;;;;;;;;;;;11.31;100.00;100304.69;5057926;28;19920;-78
2023/03/23 09:34:11;;;;;;;;;;;;;;;11.61;100.00;100304.78;5050041;28;19960;-76
2023/03/23 09:36:38;;;;;;;;;;;;;;;12.11;100.00;100310.06;5040578;28;20074;-75
2023/03/23 09:39:07;;;;;;;;;;;;;;;12.54;100.00;100310.56;5048600;28;20611;-75
2023/03/23 09:41:44;;;;;;;;;;;;;;;12.86;100.00;100325.47;5057851;28;20438;-76
2023/03/23 09:44:16;;;;;;;;;;;;;;;13.00;100.00;100329.53;5049782;28;19921;-76
2023/03/23 09:46:44;;;;;;;;;;;;;;;13.08;100.00;100328.81;5050662;28;19920;-75
2023/03/23 09:49:19;;;;;;;;;;;;;;;13.47;100.00;100333.19;5048667;28;19924;-75
2023/03/23 09:51:45;;;;;;;;;;;;;;;13.33;100.00;100331.81;5051076;28;19924;-77
2023/03/23 09:54:13;;;;;;;;;;;;;;;13.52;100.00;100336.25;5050831;28;19916;-75
2023/03/23 09:56:38;;;;;;;;;;;;;;;13.54;100.00;100345.06;5056488;28;20053;-77
2023/03/23 09:59:14;;;;;;;;;;;;;;;13.44;100.00;100337.03;5056485;28;19920;-75
2023/03/23 10:01:42;;;;;;;;;;;;;;;13.42;100.00;100352.50;5048309;28;19920;-76
2023/03/23 10:04:13;;;;;;;;;;;;;;;13.55;100.00;100338.66;5055424;28;19920;-77
2023/03/23 10:06:38;;;;;;;;;;;;;;;14.05;100.00;100337.31;5052485;28;20026;-75
2023/03/23 10:09:05;;;;;;;;;;;;;;;13.73;100.00;100341.41;5053310;28;19927;-76
2023/03/23 10:11:40;;;;;;;;;;;;;;;13.82;100.00;100352.28;5051147;28;20167;-76
2023/03/23 10:14:24;;;;;;;;;;;;;;;13.99;100.00;100342.50;5051029;28;20004;-75
2023/03/23 10:17:08;;;;;;;;;;;;;;;14.22;100.00;100350.97;5043924;28;19931;-76
2023/03/23 10:19:41;;;;;;;;;;;;;;;14.72;100.00;100356.78;5050111;28;20404;-75
2023/03/23 10:22:10;;;;;;;;;;;;;;;14.98;100.00;100349.50;5040695;28;19916;-76
2023/03/23 10:24:36;;;;;;;;;;;;;;;14.73;100.00;100342.25;5033369;28;19963;-76
2023/03/23 10:27:01;;;;;;;;;;;;;;;15.04;100.00;100341.75;5036015;28;19970;-75
2023/03/23 10:29:27;;;;;;;;;;;;;;;15.29;100.00;100348.97;5050620;28;19924;-74
2023/03/23 10:31:54;;;;;;;;;;;;;;;14.72;100.00;100364.88;5051402;28;20041;-76
2023/03/23 10:34:32;;;;;;;;;;;;;;;15.13;100.00;100363.28;5045650;28;19929;-75
2023/03/23 10:37:04;;;;;;;;;;;;;;;14.87;97.31;100338.97;5042138;28;19929;-77
2023/03/23 10:39:31;;;;;;;;;;;;;;;15.19;100.00;100364.50;5055502;28;19991;-75
2023/03/23 10:42:02;;;;;;;;;;;;;;;14.66;100.00;100356.38;5057927;28;20017;-76
2023/03/23 10:44:27;;;;;;;;;;;;;;;14.24;100.00;100362.47;5052907;28;19931;-75
2023/03/23 10:47:00;;;;;;;;;;;;;;;14.83;100.00;100367.31;5034077;28;19920;-76
2023/03/23 10:49:26;;;;;;;;;;;;;;;14.91;100.00;100367.38;5055273;28;19974;-77
2023/03/23 10:52:02;;;;;;;;;;;;;;;14.94;100.00;100379.72;5051860;28;20003;-75
2023/03/23 10:54:31;;;;;;;;;;;;;;;14.24;100.00;100379.53;5032184;28;20247;-75
2023/03/23 10:56:57;;;;;;;;;;;;;;;14.15;100.00;100380.44;5055722;28;20558;-76
2023/03/23 10:59:29;;;;;;;;;;;;;;;14.34;100.00;100374.03;5037518;28;19929;-76
2023/03/23 11:01:55;;;;;;;;;;;;;;;14.27;100.00;100375.66;5055054;28;20443;-75
2023/03/23 11:04:21;;;;;;;;;;;;;;;14.71;100.00;100364.03;5034747;28;20532;-74
2023/03/23 11:06:48;;;;;;;;;;;;;;;14.81;100.00;100372.03;5051654;28;19920;-74
2023/03/23 11:09:15;;;;;;;;;;;;;;;14.51;100.00;100372.31;5050354;28;19924;-75
2023/03/23 11:11:46;;;;;;;;;;;;;;;15.40;100.00;100360.53;5051478;28;19924;-76
2023/03/23 11:14:18;;;;;;;;;;;;;;;15.53;98.26;100360.91;5042530;28;19971;-76
2023/03/23 11:16:46;;;;;;;;;;;;;;;15.84;96.93;100360.31;5052413;28;19955;-76
2023/03/23 11:19:13;;;;;;;;;;;;;;;15.89;88.94;100349.88;5053439;28;19924;-75
2023/03/23 11:21:39;;;;;;;;;;;;;;;16.32;91.37;100351.59;5048714;28;19920;-75
2023/03/23 11:24:04;;;;;;;;;;;;;;;15.55;88.74;100349.94;5038067;28;19921;-76
2023/03/23 11:26:30;;;;;;;;;;;;;;;14.98;91.81;100362.19;5049519;28;19935;-76
2023/03/23 11:29:06;;;;;;;;;;;;;;;15.08;94.46;100359.38;5033963;28;19925;-78
2023/03/23 11:31:36;;;;;;;;;;;;;;;13.97;99.89;100358.00;5048229;28;19928;-76
2023/03/23 11:34:03;;;;;;;;;;;;;;;14.09;97.82;100360.31;5048343;28;19921;-76
2023/03/23 11:36:34;;;;;;;;;;;;;;;14.07;100.00;100366.84;5051933;28;19935;-76
2023/03/23 11:38:59;;;;;;;;;;;;;;;14.32;100.00;100369.78;5049774;28;19920;-76
2023/03/23 11:41:31;;;;;;;;;;;;;;;14.44;100.00;100360.44;5036350;28;19931;-75
2023/03/23 11:43:56;;;;;;;;;;;;;;;14.61;100.00;100364.13;5053745;28;19927;-76
2023/03/23 11:46:35;;;;;;;;;;;;;;;15.12;96.57;100369.69;5050750;28;19925;-78
2023/03/23 11:49:05;;;;;;;;;;;;;;;14.30;100.00;100369.94;5049318;28;19943;-76
2023/03/23 11:51:41;;;;;;;;;;;;;;;14.21;93.95;100374.44;5054330;28;20023;-72
2023/03/23 11:54:13;;;;;;;;;;;;;;;14.53;93.60;100369.44;5056376;28;20626;-76
2023/03/23 11:56:39;;;;;;;;;;;;;;;14.48;91.36;100355.56;5050869;28;20011;-78
2023/03/23 11:59:14;;;;;;;;;;;;;;;14.41;94.44;100385.06;5052461;28;20019;-78
2023/03/23 12:01:40;;;;;;;;;;;;;;;14.42;92.61;100367.00;5036128;28;19965;-77
2023/03/23 12:04:24;;;;;;;;;;;;;;;14.41;94.12;100374.25;5054810;28;19942;-75
2023/03/23 12:06:55;;;;;;;;;;;;;;;14.59;90.71;100367.97;5050983;28;19924;-76
2023/03/23 12:09:21;;;;;;;;;;;;;;;14.44;90.51;100359.56;5052588;28;19928;-76
2023/03/23 12:11:52;;;;;;;;;;;;;;;14.29;92.26;100354.75;5047470;28;20011;-76
2023/03/23 12:14:30;;;;;;;;;;;;;;;14.25;92.11;100353.34;5053556;28;19921;-76
2023/03/23 12:17:07;;;;;;;;;;;;;;;16.14;87.35;100341.78;5050256;28;19930;-77
2023/03/23 12:19:42;;;;;;;;;;;;;;;16.47;84.18;100330.09;5049107;28;20330;-77
2023/03/23 12:22:20;;;;;;;;;;;;;;;17.31;77.74;100335.19;5053825;28;19921;-78
2023/03/23 12:24:54;;;;;;;;;;;;;;;17.74;76.54;100342.06;5050499;28;20438;-76
2023/03/23 12:27:22;;;;;;;;;;;;;;;16.40;74.50;100350.78;5050722;28;20339;-78
2023/03/23 12:29:50;;;;;;;;;;;;;;;15.75;83.62;100353.22;5046745;28;19920;-75